Cap San Sounio — 9V2240 — position and weather

sailwx.info

Track history (hours):
 
Tides and Currents Weather Stations Pressure Air Temp Water Temp Dewpoint Dewpoint Depression Visibility Wind Speed Wind Dir Waves Ship Positions

Cap San Sounio

Last reported at 2018-Jan-24 09:58 UTC. Time now 2018-Jan-24 10:05 UTC.
Position N 51°57' E 004°03'.

Length 333 m; draft 12.1 m.

Type: Cargo ship. MMSI: 564716000.

Date/timePositionNaut miles runAvg speedWind from/ knotsBaromVisibWave heightAir tempDewpointWater temp
2018-Jan-24 09:58N 51°57' E 004°03'0 0.0
2018-Jan-24 09:28N 51°57' E 004°03'0 0.0
2018-Jan-24 08:58N 51°57' E 004°03'0 0.0
2018-Jan-24 08:28N 51°57' E 004°03'0 0.0
2018-Jan-24 07:58N 51°57' E 004°03'0 0.0
2018-Jan-24 07:28N 51°57' E 004°03'0 0.0
2018-Jan-24 06:58N 51°57' E 004°03'0 0.0
2018-Jan-24 06:28N 51°57' E 004°03'0 0.0
2018-Jan-24 05:58N 51°57' E 004°03'0 0.0
2018-Jan-24 05:28N 51°57' E 004°03'0 0.0
2018-Jan-24 04:58N 51°57' E 004°03'0 0.0
2018-Jan-24 04:28N 51°57' E 004°03'0 0.0
2018-Jan-24 03:58N 51°57' E 004°03'0 0.0
2018-Jan-24 03:28N 51°57' E 004°03'0 0.0
2018-Jan-24 02:58N 51°57' E 004°03'0 0.0
2018-Jan-24 02:28N 51°57' E 004°03'0 0.0
2018-Jan-24 01:58N 51°57' E 004°03'0 0.0
2018-Jan-24 01:28N 51°57' E 004°03'0 0.0
2018-Jan-24 00:58N 51°57' E 004°03'0 0.0
2018-Jan-24 00:25N 51°57' E 004°03'0 0.0
2018-Jan-23 23:55N 51°57' E 004°03'0 0.0
2018-Jan-23 23:28N 51°57' E 004°03'0 0.0
2018-Jan-23 22:58N 51°57' E 004°03'0 0.0
2018-Jan-23 22:28N 51°57' E 004°03'0 0.0
2018-Jan-23 21:55N 51°57' E 004°03'0 0.0
2018-Jan-23 21:28N 51°57' E 004°03'0 0.0
2018-Jan-23 20:58N 51°57' E 004°03'0 0.0
2018-Jan-23 20:28N 51°57' E 004°03'0 0.0
2018-Jan-23 19:58N 51°57' E 004°03'0 0.0
2018-Jan-23 19:28N 51°57' E 004°03'0 0.0
2018-Jan-23 18:58N 51°57' E 004°03'0 0.0
2018-Jan-23 18:28N 51°57' E 004°03'0 0.0
2018-Jan-23 17:58N 51°57' E 004°03'0 0.0
2018-Jan-23 17:28N 51°57' E 004°03'0 0.0
2018-Jan-23 16:58N 51°57' E 004°03'0 0.0
2018-Jan-23 16:28N 51°57' E 004°03'0 0.1
2018-Jan-23 16:00N 51°57' E 004°03'1 2.8
2018-Jan-23 15:30N 51°57' E 004°05'3 5.6
2018-Jan-23 15:00N 51°60' E 004°02'4 8.1
2018-Jan-23 14:30N 52°01' E 003°56'611.8
2018-Jan-23 14:00N 52°00' E 003°46'2 3.6
2018-Jan-23 13:30N 52°01' E 003°44'4 8.3
2018-Jan-23 13:00N 52°00' E 003°51'3 6.6
2018-Jan-23 12:30N 51°59' E 003°45'713.8
2018-Jan-23 12:00N 51°58' E 003°35'816.3
2018-Jan-23 11:29N 51°55' E 003°21'916.7
2018-Jan-23 10:59N 51°53' E 003°08'816.4
2018-Jan-23 10:29N 51°50' E 002°56'816.7
2018-Jan-23 09:59N 51°48' E 002°43'816.3
2018-Jan-23 09:30N 51°43' E 002°33'817.2
2018-Jan-23 09:00N 51°37' E 002°24'815.1
2018-Jan-23 08:29N 51°30' E 002°16'713.8
2018-Jan-23 08:00N 51°25' E 002°11'714.1
2018-Jan-23 07:30N 51°18' E 002°07'713.9
2018-Jan-23 07:00N 51°13' E 001°60'714.5
2018-Jan-23 06:30N 51°09' E 001°50'714.8
2018-Jan-23 06:00N 51°04' E 001°41'815.2
2018-Jan-23 05:31N 50°58' E 001°33'815.7
2018-Jan-23 05:00N 50°52' E 001°26'815.1
2018-Jan-23 04:30N 50°45' E 001°22'814.0
2018-Jan-23 03:56N 50°38' E 001°16'1014.2
2018-Jan-23 03:16N 50°32' E 001°03'414.1
2018-Jan-23 03:00N 50°30' E 000°59'714.1
2018-Jan-23 02:30N 50°27' E 000°49'714.2
2018-Jan-23 02:00N 50°24' E 000°38'714.5
2018-Jan-23 01:30N 50°23' E 000°27'714.9
2018-Jan-23 01:00N 50°21' E 000°16'815.4
2018-Jan-23 00:30N 50°19' E 000°04'815.6
2018-Jan-23 00:00N 50°17' W 000°07'815.8
2018-Jan-22 23:30N 50°15' W 000°19'816.0
2018-Jan-22 23:00N 50°13' W 000°32'815.9
2018-Jan-22 22:30N 50°11' W 000°44'815.7
2018-Jan-22 22:00N 50°10' W 000°56'815.3
2018-Jan-22 21:30N 50°08' W 001°07'1014.6
2018-Jan-22 20:48N 50°05' W 001°23'513.8
2018-Jan-22 20:27N 50°04' W 001°30'713.2
2018-Jan-22 19:55N 50°02' W 001°40'612.5
2018-Jan-22 19:28N 50°01' W 001°49'911.7
2018-Jan-22 18:42N 49°58' W 002°03'810.9
2018-Jan-22 17:59N 49°56' W 002°14'510.8
2018-Jan-22 17:30N 49°55' W 002°22'610.9
2018-Jan-22 16:57N 49°53' W 002°31'511.2
2018-Jan-22 16:29N 49°52' W 002°39'511.4
2018-Jan-22 16:00N 49°51' W 002°47'611.8
2018-Jan-22 15:30N 49°49' W 002°56'612.2
2018-Jan-22 15:00N 49°48' W 003°05'612.4
2018-Jan-22 14:30N 49°47' W 003°15'612.6
2018-Jan-22 14:01N 49°46' W 003°24'712.8
2018-Jan-22 13:30N 49°46' W 003°34'612.9
2018-Jan-22 13:00N 49°45' W 003°44'713.0
2018-Jan-22 12:29N 49°44' W 003°55'713.2
2018-Jan-22 11:57N 49°43' W 004°05'713.2
2018-Jan-22 11:28N 49°42' W 004°15'613.4
2018-Jan-22 11:00N 49°41' W 004°25'713.6
2018-Jan-22 10:29N 49°41' W 004°36'713.8
2018-Jan-22 10:00N 49°40' W 004°46'  
Track history (hours):
 
Tides and Currents Weather Stations Pressure Air Temp Water Temp Dewpoint Dewpoint Depression Visibility Wind Speed Wind Dir Waves Ship Positions

Cap San Sounio

Last reported at 2018-Jan-24 09:58 UTC. Time now 2018-Jan-24 10:05 UTC.
Position N 51°57' E 004°03'.

Length 333 m; draft 12.1 m.

Type: Cargo ship. MMSI: 564716000.

Date/timePositionNaut miles runAvg speedWind from/ knotsBaromVisibWave heightAir tempDewpointWater temp
2018-Jan-24 09:58N 51°57' E 004°03'0 0.0
2018-Jan-24 09:28N 51°57' E 004°03'0 0.0
2018-Jan-24 08:58N 51°57' E 004°03'0 0.0
2018-Jan-24 08:28N 51°57' E 004°03'0 0.0
2018-Jan-24 07:58N 51°57' E 004°03'0 0.0
2018-Jan-24 07:28N 51°57' E 004°03'0 0.0
2018-Jan-24 06:58N 51°57' E 004°03'0 0.0
2018-Jan-24 06:28N 51°57' E 004°03'0 0.0
2018-Jan-24 05:58N 51°57' E 004°03'0 0.0
2018-Jan-24 05:28N 51°57' E 004°03'0 0.0
2018-Jan-24 04:58N 51°57' E 004°03'0 0.0
2018-Jan-24 04:28N 51°57' E 004°03'0 0.0
2018-Jan-24 03:58N 51°57' E 004°03'0 0.0
2018-Jan-24 03:28N 51°57' E 004°03'0 0.0
2018-Jan-24 02:58N 51°57' E 004°03'0 0.0
2018-Jan-24 02:28N 51°57' E 004°03'0 0.0
2018-Jan-24 01:58N 51°57' E 004°03'0 0.0
2018-Jan-24 01:28N 51°57' E 004°03'0 0.0
2018-Jan-24 00:58N 51°57' E 004°03'0 0.0
2018-Jan-24 00:25N 51°57' E 004°03'0 0.0
2018-Jan-23 23:55N 51°57' E 004°03'0 0.0
2018-Jan-23 23:28N 51°57' E 004°03'0 0.0
2018-Jan-23 22:58N 51°57' E 004°03'0 0.0
2018-Jan-23 22:28N 51°57' E 004°03'0 0.0
2018-Jan-23 21:55N 51°57' E 004°03'0 0.0
2018-Jan-23 21:28N 51°57' E 004°03'0 0.0
2018-Jan-23 20:58N 51°57' E 004°03'0 0.0
2018-Jan-23 20:28N 51°57' E 004°03'0 0.0
2018-Jan-23 19:58N 51°57' E 004°03'0 0.0
2018-Jan-23 19:28N 51°57' E 004°03'0 0.0
2018-Jan-23 18:58N 51°57' E 004°03'0 0.0
2018-Jan-23 18:28N 51°57' E 004°03'0 0.0
2018-Jan-23 17:58N 51°57' E 004°03'0 0.0
2018-Jan-23 17:28N 51°57' E 004°03'0 0.0
2018-Jan-23 16:58N 51°57' E 004°03'0 0.0
2018-Jan-23 16:28N 51°57' E 004°03'0 0.1
2018-Jan-23 16:00N 51°57' E 004°03'1 2.8
2018-Jan-23 15:30N 51°57' E 004°05'3 5.6
2018-Jan-23 15:00N 51°60' E 004°02'4 8.1
2018-Jan-23 14:30N 52°01' E 003°56'611.8
2018-Jan-23 14:00N 52°00' E 003°46'2 3.6
2018-Jan-23 13:30N 52°01' E 003°44'4 8.3
2018-Jan-23 13:00N 52°00' E 003°51'3 6.6
2018-Jan-23 12:30N 51°59' E 003°45'713.8
2018-Jan-23 12:00N 51°58' E 003°35'816.3
2018-Jan-23 11:29N 51°55' E 003°21'916.7
2018-Jan-23 10:59N 51°53' E 003°08'816.4
2018-Jan-23 10:29N 51°50' E 002°56'816.7
2018-Jan-23 09:59N 51°48' E 002°43'816.3
2018-Jan-23 09:30N 51°43' E 002°33'817.2
2018-Jan-23 09:00N 51°37' E 002°24'815.1
2018-Jan-23 08:29N 51°30' E 002°16'713.8
2018-Jan-23 08:00N 51°25' E 002°11'714.1
2018-Jan-23 07:30N 51°18' E 002°07'713.9
2018-Jan-23 07:00N 51°13' E 001°60'714.5
2018-Jan-23 06:30N 51°09' E 001°50'714.8
2018-Jan-23 06:00N 51°04' E 001°41'815.2
2018-Jan-23 05:31N 50°58' E 001°33'815.7
2018-Jan-23 05:00N 50°52' E 001°26'815.1
2018-Jan-23 04:30N 50°45' E 001°22'814.0
2018-Jan-23 03:56N 50°38' E 001°16'1014.2
2018-Jan-23 03:16N 50°32' E 001°03'414.1
2018-Jan-23 03:00N 50°30' E 000°59'714.1
2018-Jan-23 02:30N 50°27' E 000°49'714.2
2018-Jan-23 02:00N 50°24' E 000°38'714.5
2018-Jan-23 01:30N 50°23' E 000°27'714.9
2018-Jan-23 01:00N 50°21' E 000°16'815.4
2018-Jan-23 00:30N 50°19' E 000°04'815.6
2018-Jan-23 00:00N 50°17' W 000°07'815.8
2018-Jan-22 23:30N 50°15' W 000°19'816.0
2018-Jan-22 23:00N 50°13' W 000°32'815.9
2018-Jan-22 22:30N 50°11' W 000°44'815.7
2018-Jan-22 22:00N 50°10' W 000°56'815.3
2018-Jan-22 21:30N 50°08' W 001°07'1014.6
2018-Jan-22 20:48N 50°05' W 001°23'513.8
2018-Jan-22 20:27N 50°04' W 001°30'713.2
2018-Jan-22 19:55N 50°02' W 001°40'612.5
2018-Jan-22 19:28N 50°01' W 001°49'911.7
2018-Jan-22 18:42N 49°58' W 002°03'810.9
2018-Jan-22 17:59N 49°56' W 002°14'510.8
2018-Jan-22 17:30N 49°55' W 002°22'610.9
2018-Jan-22 16:57N 49°53' W 002°31'511.2
2018-Jan-22 16:29N 49°52' W 002°39'511.4
2018-Jan-22 16:00N 49°51' W 002°47'611.8
2018-Jan-22 15:30N 49°49' W 002°56'612.2
2018-Jan-22 15:00N 49°48' W 003°05'612.4
2018-Jan-22 14:30N 49°47' W 003°15'612.6
2018-Jan-22 14:01N 49°46' W 003°24'712.8
2018-Jan-22 13:30N 49°46' W 003°34'612.9
2018-Jan-22 13:00N 49°45' W 003°44'713.0
2018-Jan-22 12:29N 49°44' W 003°55'713.2
2018-Jan-22 11:57N 49°43' W 004°05'713.2
2018-Jan-22 11:28N 49°42' W 004°15'613.4
2018-Jan-22 11:00N 49°41' W 004°25'713.6
2018-Jan-22 10:29N 49°41' W 004°36'713.8
2018-Jan-22 10:00N 49°40' W 004°46'  

Dump ship's entire track history